sensor_id;sensor_type;location;lat;lon;timestamp;temperature;humidity
1297;DHT22;641;48.492;9.184;2022-08-04T00:00:30;25.90;83.40
1297;DHT22;641;48.492;9.184;2022-08-04T00:03:15;25.90;83.20
1297;DHT22;641;48.492;9.184;2022-08-04T00:11:09;25.70;85.20
1297;DHT22;641;48.492;9.184;2022-08-04T00:13:38;25.70;86.50
1297;DHT22;641;48.492;9.184;2022-08-04T00:16:06;25.50;87.50
1297;DHT22;641;48.492;9.184;2022-08-04T00:18:57;25.30;88.00
1297;DHT22;641;48.492;9.184;2022-08-04T00:21:27;25.20;88.10
1297;DHT22;641;48.492;9.184;2022-08-04T00:23:54;25.20;88.80
1297;DHT22;641;48.492;9.184;2022-08-04T00:26:21;25.10;89.50
1297;DHT22;641;48.492;9.184;2022-08-04T00:28:47;25.00;89.80
1297;DHT22;641;48.492;9.184;2022-08-04T00:31:14;25.00;89.70
1297;DHT22;641;48.492;9.184;2022-08-04T00:33:46;25.00;88.90
1297;DHT22;641;48.492;9.184;2022-08-04T00:36:13;25.00;88.60
1297;DHT22;641;48.492;9.184;2022-08-04T00:38:41;24.90;89.60
1297;DHT22;641;48.492;9.184;2022-08-04T00:41:21;24.90;89.40
1297;DHT22;641;48.492;9.184;2022-08-04T00:46:45;24.70;90.10
1297;DHT22;641;48.492;9.184;2022-08-04T01:01:04;24.60;90.10
1297;DHT22;641;48.492;9.184;2022-08-04T01:03:50;24.60;90.00
1297;DHT22;641;48.492;9.184;2022-08-04T01:15:14;24.60;88.70
1297;DHT22;641;48.492;9.184;2022-08-04T01:17:52;24.50;89.70
1297;DHT22;641;48.492;9.184;2022-08-04T01:20:24;24.50;89.40
1297;DHT22;641;48.492;9.184;2022-08-04T01:34:05;24.30;90.20
1297;DHT22;641;48.492;9.184;2022-08-04T01:36:34;24.20;90.30
1297;DHT22;641;48.492;9.184;2022-08-04T01:39:00;24.20;90.20
1297;DHT22;641;48.492;9.184;2022-08-04T01:41:46;24.20;90.10
1297;DHT22;641;48.492;9.184;2022-08-04T01:44:13;24.10;89.90
1297;DHT22;641;48.492;9.184;2022-08-04T01:46:39;24.10;90.00
1297;DHT22;641;48.492;9.184;2022-08-04T01:49:06;24.00;90.10
1297;DHT22;641;48.492;9.184;2022-08-04T01:51:38;24.00;90.70
1297;DHT22;641;48.492;9.184;2022-08-04T01:54:04;24.00;90.30
1297;DHT22;641;48.492;9.184;2022-08-04T01:56:30;24.00;90.10
1297;DHT22;641;48.492;9.184;2022-08-04T01:58:59;24.00;90.00
1297;DHT22;641;48.492;9.184;2022-08-04T02:01:27;24.00;90.00
1297;DHT22;641;48.492;9.184;2022-08-04T02:03:52;23.90;90.40
1297;DHT22;641;48.492;9.184;2022-08-04T02:09:13;23.80;91.20
1297;DHT22;641;48.492;9.184;2022-08-04T02:11:48;23.70;90.70
1297;DHT22;641;48.492;9.184;2022-08-04T02:14:49;23.70;90.50
1297;DHT22;641;48.492;9.184;2022-08-04T02:17:17;23.60;91.20
1297;DHT22;641;48.492;9.184;2022-08-04T02:22:21;23.60;91.20
1297;DHT22;641;48.492;9.184;2022-08-04T02:24:49;23.50;91.60
1297;DHT22;641;48.492;9.184;2022-08-04T02:27:24;23.30;91.80
1297;DHT22;641;48.492;9.184;2022-08-04T02:29:58;23.30;91.80
1297;DHT22;641;48.492;9.184;2022-08-04T02:32:29;23.30;92.30
1297;DHT22;641;48.492;9.184;2022-08-04T02:38:03;23.30;93.20
1297;DHT22;641;48.492;9.184;2022-08-04T02:40:29;23.20;93.50
1297;DHT22;641;48.492;9.184;2022-08-04T02:42:57;23.10;93.80
1297;DHT22;641;48.492;9.184;2022-08-04T02:45:24;23.10;94.10
1297;DHT22;641;48.492;9.184;2022-08-04T02:47:52;23.10;94.20
1297;DHT22;641;48.492;9.184;2022-08-04T02:50:19;23.10;94.20
1297;DHT22;641;48.492;9.184;2022-08-04T02:52:48;23.00;94.10
1297;DHT22;641;48.492;9.184;2022-08-04T02:55:16;23.00;94.30
1297;DHT22;641;48.492;9.184;2022-08-04T02:57:44;23.20;94.60
1297;DHT22;641;48.492;9.184;2022-08-04T03:00:12;22.80;94.50
1297;DHT22;641;48.492;9.184;2022-08-04T03:02:49;22.90;94.90
1297;DHT22;641;48.492;9.184;2022-08-04T03:05:23;22.90;94.70
1297;DHT22;641;48.492;9.184;2022-08-04T03:08:17;22.90;94.70
1297;DHT22;641;48.492;9.184;2022-08-04T03:14:36;22.80;94.80
1297;DHT22;641;48.492;9.184;2022-08-04T03:19:42;22.90;94.80
1297;DHT22;641;48.492;9.184;2022-08-04T03:22:40;22.90;94.50
1297;DHT22;641;48.492;9.184;2022-08-04T03:28:11;22.90;94.50
1297;DHT22;641;48.492;9.184;2022-08-04T03:54:28;22.60;95.50
1297;DHT22;641;48.492;9.184;2022-08-04T04:00:03;22.70;95.10
1297;DHT22;641;48.492;9.184;2022-08-04T04:02:52;22.60;95.40
1297;DHT22;641;48.492;9.184;2022-08-04T04:05:43;22.60;95.50
1297;DHT22;641;48.492;9.184;2022-08-04T04:20:01;22.50;96.40
1297;DHT22;641;48.492;9.184;2022-08-04T04:22:33;22.50;96.60
1297;DHT22;641;48.492;9.184;2022-08-04T04:25:41;22.50;96.40
1297;DHT22;641;48.492;9.184;2022-08-04T04:42:17;22.60;96.70
1297;DHT22;641;48.492;9.184;2022-08-04T04:48:26;22.80;96.30
1297;DHT22;641;48.492;9.184;2022-08-04T04:53:35;22.80;96.40
1297;DHT22;641;48.492;9.184;2022-08-04T04:56:07;22.70;97.10
1297;DHT22;641;48.492;9.184;2022-08-04T04:58:37;22.70;97.30
1297;DHT22;641;48.492;9.184;2022-08-04T05:06:27;23.10;96.90
1297;DHT22;641;48.492;9.184;2022-08-04T05:16:45;23.40;97.30
1297;DHT22;641;48.492;9.184;2022-08-04T05:19:33;23.50;97.60
1297;DHT22;641;48.492;9.184;2022-08-04T05:22:11;23.50;97.20
1297;DHT22;641;48.492;9.184;2022-08-04T05:24:41;23.40;96.90
1297;DHT22;641;48.492;9.184;2022-08-04T05:27:15;23.40;96.70
1297;DHT22;641;48.492;9.184;2022-08-04T05:29:53;23.50;96.60
1297;DHT22;641;48.492;9.184;2022-08-04T05:32:25;23.50;96.30
1297;DHT22;641;48.492;9.184;2022-08-04T05:35:03;23.40;96.30
1297;DHT22;641;48.492;9.184;2022-08-04T05:37:31;23.40;96.40
1297;DHT22;641;48.492;9.184;2022-08-04T05:40:02;23.50;96.20
1297;DHT22;641;48.492;9.184;2022-08-04T05:42:30;23.50;96.40
1297;DHT22;641;48.492;9.184;2022-08-04T05:44:58;23.50;96.50
1297;DHT22;641;48.492;9.184;2022-08-04T05:47:24;23.60;96.30
1297;DHT22;641;48.492;9.184;2022-08-04T05:49:51;23.60;96.40
1297;DHT22;641;48.492;9.184;2022-08-04T05:52:17;23.50;96.60
1297;DHT22;641;48.492;9.184;2022-08-04T05:54:44;23.50;96.40
1297;DHT22;641;48.492;9.184;2022-08-04T05:57:11;23.50;95.90
1297;DHT22;641;48.492;9.184;2022-08-04T05:59:38;23.50;96.00
1297;DHT22;641;48.492;9.184;2022-08-04T06:02:07;23.50;96.50
1297;DHT22;641;48.492;9.184;2022-08-04T06:04:38;23.60;96.40
1297;DHT22;641;48.492;9.184;2022-08-04T06:07:05;23.60;96.30
1297;DHT22;641;48.492;9.184;2022-08-04T06:09:31;23.70;96.30
1297;DHT22;641;48.492;9.184;2022-08-04T06:12:02;23.70;96.50
1297;DHT22;641;48.492;9.184;2022-08-04T06:14:32;23.70;96.70
1297;DHT22;641;48.492;9.184;2022-08-04T06:17:03;23.80;96.40
1297;DHT22;641;48.492;9.184;2022-08-04T06:19:33;23.90;95.80
1297;DHT22;641;48.492;9.184;2022-08-04T06:22:02;24.10;95.40
1297;DHT22;641;48.492;9.184;2022-08-04T06:24:29;24.20;95.50
1297;DHT22;641;48.492;9.184;2022-08-04T06:26:55;24.30;95.30
1297;DHT22;641;48.492;9.184;2022-08-04T06:29:23;24.40;95.20
1297;DHT22;641;48.492;9.184;2022-08-04T06:32:00;24.50;94.60
1297;DHT22;641;48.492;9.184;2022-08-04T06:34:28;24.70;94.40
1297;DHT22;641;48.492;9.184;2022-08-04T06:36:55;24.90;94.70
1297;DHT22;641;48.492;9.184;2022-08-04T06:39:23;25.10;94.10
1297;DHT22;641;48.492;9.184;2022-08-04T06:41:52;25.30;94.20
1297;DHT22;641;48.492;9.184;2022-08-04T06:44:18;25.40;93.50
1297;DHT22;641;48.492;9.184;2022-08-04T06:46:44;25.50;93.10
1297;DHT22;641;48.492;9.184;2022-08-04T06:49:10;25.60;92.80
1297;DHT22;641;48.492;9.184;2022-08-04T06:51:38;25.80;93.00
1297;DHT22;641;48.492;9.184;2022-08-04T06:54:06;25.80;93.10
1297;DHT22;641;48.492;9.184;2022-08-04T06:56:33;25.80;92.70
1297;DHT22;641;48.492;9.184;2022-08-04T06:59:01;25.90;92.80
1297;DHT22;641;48.492;9.184;2022-08-04T07:01:28;25.90;92.80
1297;DHT22;641;48.492;9.184;2022-08-04T07:03:54;26.10;92.60
1297;DHT22;641;48.492;9.184;2022-08-04T07:06:21;26.30;92.00
1297;DHT22;641;48.492;9.184;2022-08-04T07:08:48;26.50;91.70
1297;DHT22;641;48.492;9.184;2022-08-04T07:11:14;26.60;91.70
1297;DHT22;641;48.492;9.184;2022-08-04T07:13:41;26.70;92.10
1297;DHT22;641;48.492;9.184;2022-08-04T07:16:09;26.70;92.40
1297;DHT22;641;48.492;9.184;2022-08-04T07:18:37;26.80;92.10
1297;DHT22;641;48.492;9.184;2022-08-04T07:21:03;26.90;92.10
1297;DHT22;641;48.492;9.184;2022-08-04T07:23:29;26.90;91.90
1297;DHT22;641;48.492;9.184;2022-08-04T07:25:57;26.90;91.60
1297;DHT22;641;48.492;9.184;2022-08-04T07:28:27;27.10;91.60
1297;DHT22;641;48.492;9.184;2022-08-04T07:30:54;27.30;91.50
1297;DHT22;641;48.492;9.184;2022-08-04T07:33:21;27.40;91.40
1297;DHT22;641;48.492;9.184;2022-08-04T07:35:51;27.40;91.10
1297;DHT22;641;48.492;9.184;2022-08-04T07:38:16;27.50;90.90
1297;DHT22;641;48.492;9.184;2022-08-04T07:40:42;27.20;91.00
1297;DHT22;641;48.492;9.184;2022-08-04T07:43:08;27.10;91.20
1297;DHT22;641;48.492;9.184;2022-08-04T07:45:35;27.40;91.10
1297;DHT22;641;48.492;9.184;2022-08-04T07:48:01;27.60;90.60
1297;DHT22;641;48.492;9.184;2022-08-04T07:50:28;27.70;90.70
1297;DHT22;641;48.492;9.184;2022-08-04T07:52:54;27.80;90.40
1297;DHT22;641;48.492;9.184;2022-08-04T07:55:21;28.00;90.30
1297;DHT22;641;48.492;9.184;2022-08-04T07:57:47;28.10;90.40
1297;DHT22;641;48.492;9.184;2022-08-04T08:00:12;28.20;90.90
1297;DHT22;641;48.492;9.184;2022-08-04T08:02:44;28.40;90.20
1297;DHT22;641;48.492;9.184;2022-08-04T08:05:13;28.50;90.10
1297;DHT22;641;48.492;9.184;2022-08-04T08:07:39;28.60;90.50
1297;DHT22;641;48.492;9.184;2022-08-04T08:10:11;28.70;89.50
1297;DHT22;641;48.492;9.184;2022-08-04T08:12:37;28.80;90.00
1297;DHT22;641;48.492;9.184;2022-08-04T08:15:08;28.90;90.30
1297;DHT22;641;48.492;9.184;2022-08-04T08:17:34;28.90;89.80
1297;DHT22;641;48.492;9.184;2022-08-04T08:20:00;29.00;90.00
1297;DHT22;641;48.492;9.184;2022-08-04T08:22:27;29.00;90.40
1297;DHT22;641;48.492;9.184;2022-08-04T08:24:53;29.10;89.70
1297;DHT22;641;48.492;9.184;2022-08-04T08:27:19;29.00;88.90
1297;DHT22;641;48.492;9.184;2022-08-04T08:29:45;29.20;88.20
1297;DHT22;641;48.492;9.184;2022-08-04T08:32:11;29.40;88.10
1297;DHT22;641;48.492;9.184;2022-08-04T08:34:38;29.60;87.20
1297;DHT22;641;48.492;9.184;2022-08-04T08:39:53;29.80;87.20
1297;DHT22;641;48.492;9.184;2022-08-04T08:48:44;30.30;83.80
1297;DHT22;641;48.492;9.184;2022-08-04T08:54:20;30.50;83.60
1297;DHT22;641;48.492;9.184;2022-08-04T09:00:05;30.80;83.80
1297;DHT22;641;48.492;9.184;2022-08-04T09:02:51;31.00;81.30
1297;DHT22;641;48.492;9.184;2022-08-04T09:11:43;31.20;80.50
1297;DHT22;641;48.492;9.184;2022-08-04T09:15:07;31.40;79.40
1297;DHT22;641;48.492;9.184;2022-08-04T09:17:47;31.60;80.90
1297;DHT22;641;48.492;9.184;2022-08-04T09:22:53;31.90;78.00
1297;DHT22;641;48.492;9.184;2022-08-04T09:25:57;32.10;75.10
1297;DHT22;641;48.492;9.184;2022-08-04T09:28:26;32.30;73.80
1297;DHT22;641;48.492;9.184;2022-08-04T09:31:05;32.40;74.00
1297;DHT22;641;48.492;9.184;2022-08-04T09:36:08;32.50;75.40
1297;DHT22;641;48.492;9.184;2022-08-04T09:38:53;32.30;74.60
1297;DHT22;641;48.492;9.184;2022-08-04T09:44:42;32.60;73.10
1297;DHT22;641;48.492;9.184;2022-08-04T09:50:03;32.90;72.80
1297;DHT22;641;48.492;9.184;2022-08-04T09:58:03;33.10;73.00
1297;DHT22;641;48.492;9.184;2022-08-04T10:00:43;33.30;72.50
1297;DHT22;641;48.492;9.184;2022-08-04T10:03:11;33.40;70.20
1297;DHT22;641;48.492;9.184;2022-08-04T10:05:42;33.40;71.30
1297;DHT22;641;48.492;9.184;2022-08-04T10:11:06;33.60;68.10
1297;DHT22;641;48.492;9.184;2022-08-04T10:17:02;33.40;68.40
1297;DHT22;641;48.492;9.184;2022-08-04T10:19:37;33.60;65.00
1297;DHT22;641;48.492;9.184;2022-08-04T10:22:20;33.70;66.90
1297;DHT22;641;48.492;9.184;2022-08-04T10:27:40;33.80;62.80
1297;DHT22;641;48.492;9.184;2022-08-04T10:30:09;33.90;63.50
1297;DHT22;641;48.492;9.184;2022-08-04T10:35:21;34.10;61.60
1297;DHT22;641;48.492;9.184;2022-08-04T10:43:45;34.40;62.20
1297;DHT22;641;48.492;9.184;2022-08-04T10:46:17;34.60;61.20
1297;DHT22;641;48.492;9.184;2022-08-04T10:51:33;34.40;59.30
1297;DHT22;641;48.492;9.184;2022-08-04T10:54:02;34.20;60.00
1297;DHT22;641;48.492;9.184;2022-08-04T10:56:42;34.30;59.40
1297;DHT22;641;48.492;9.184;2022-08-04T10:59:11;34.40;57.70
1297;DHT22;641;48.492;9.184;2022-08-04T11:01:43;34.60;57.80
1297;DHT22;641;48.492;9.184;2022-08-04T11:04:22;34.60;59.50
1297;DHT22;641;48.492;9.184;2022-08-04T11:06:50;34.60;60.10
1297;DHT22;641;48.492;9.184;2022-08-04T11:09:17;34.60;58.10
1297;DHT22;641;48.492;9.184;2022-08-04T11:11:48;34.70;57.90
1297;DHT22;641;48.492;9.184;2022-08-04T11:14:23;34.60;58.40
1297;DHT22;641;48.492;9.184;2022-08-04T11:17:05;34.70;57.40
1297;DHT22;641;48.492;9.184;2022-08-04T11:19:42;34.70;58.20
1297;DHT22;641;48.492;9.184;2022-08-04T11:25:06;34.90;58.20
1297;DHT22;641;48.492;9.184;2022-08-04T11:28:08;34.80;57.00
1297;DHT22;641;48.492;9.184;2022-08-04T11:33:49;34.70;57.70
1297;DHT22;641;48.492;9.184;2022-08-04T11:36:34;34.90;57.70
1297;DHT22;641;48.492;9.184;2022-08-04T11:39:25;34.90;57.10
1297;DHT22;641;48.492;9.184;2022-08-04T11:50:04;35.50;58.40
1297;DHT22;641;48.492;9.184;2022-08-04T11:52:33;35.50;57.00
1297;DHT22;641;48.492;9.184;2022-08-04T11:55:04;35.50;58.70
1297;DHT22;641;48.492;9.184;2022-08-04T11:57:31;35.50;59.50
1297;DHT22;641;48.492;9.184;2022-08-04T11:59:58;35.60;58.30
1297;DHT22;641;48.492;9.184;2022-08-04T12:05:26;35.80;58.20
1297;DHT22;641;48.492;9.184;2022-08-04T12:13:48;35.90;58.80
1297;DHT22;641;48.492;9.184;2022-08-04T12:16:31;35.90;58.40
1297;DHT22;641;48.492;9.184;2022-08-04T12:19:02;35.90;58.40
1297;DHT22;641;48.492;9.184;2022-08-04T12:21:53;35.80;58.50
1297;DHT22;641;48.492;9.184;2022-08-04T12:24:30;35.80;58.10
1297;DHT22;641;48.492;9.184;2022-08-04T12:27:03;35.90;56.00
1297;DHT22;641;48.492;9.184;2022-08-04T12:29:33;36.00;56.70
1297;DHT22;641;48.492;9.184;2022-08-04T12:32:10;35.90;56.60
1297;DHT22;641;48.492;9.184;2022-08-04T12:40:11;36.00;57.40
1297;DHT22;641;48.492;9.184;2022-08-04T12:45:09;36.10;57.00
1297;DHT22;641;48.492;9.184;2022-08-04T12:47:36;36.20;55.20
1297;DHT22;641;48.492;9.184;2022-08-04T12:50:07;36.20;55.00
1297;DHT22;641;48.492;9.184;2022-08-04T12:52:42;36.20;55.60
1297;DHT22;641;48.492;9.184;2022-08-04T12:55:09;36.20;55.70
1297;DHT22;641;48.492;9.184;2022-08-04T12:57:36;36.30;57.40
1297;DHT22;641;48.492;9.184;2022-08-04T13:00:03;36.40;56.30
1297;DHT22;641;48.492;9.184;2022-08-04T13:02:30;36.30;55.60
1297;DHT22;641;48.492;9.184;2022-08-04T13:05:02;36.40;57.00
1297;DHT22;641;48.492;9.184;2022-08-04T13:07:36;36.50;56.10
1297;DHT22;641;48.492;9.184;2022-08-04T13:10:12;36.50;56.80
1297;DHT22;641;48.492;9.184;2022-08-04T13:12:39;36.50;57.20
1297;DHT22;641;48.492;9.184;2022-08-04T13:15:16;36.50;56.70
1297;DHT22;641;48.492;9.184;2022-08-04T13:17:52;36.50;56.60
1297;DHT22;641;48.492;9.184;2022-08-04T13:20:38;36.60;56.60
1297;DHT22;641;48.492;9.184;2022-08-04T13:23:10;36.70;56.40
1297;DHT22;641;48.492;9.184;2022-08-04T13:25:40;36.80;57.20
1297;DHT22;641;48.492;9.184;2022-08-04T13:28:13;36.80;56.20
1297;DHT22;641;48.492;9.184;2022-08-04T13:30:40;36.80;56.90
1297;DHT22;641;48.492;9.184;2022-08-04T13:33:08;36.80;56.40
1297;DHT22;641;48.492;9.184;2022-08-04T13:35:35;36.80;56.20
1297;DHT22;641;48.492;9.184;2022-08-04T13:38:07;36.80;54.60
1297;DHT22;641;48.492;9.184;2022-08-04T13:40:35;36.80;55.70
1297;DHT22;641;48.492;9.184;2022-08-04T13:43:02;36.70;55.00
1297;DHT22;641;48.492;9.184;2022-08-04T13:45:27;36.60;53.50
1297;DHT22;641;48.492;9.184;2022-08-04T13:47:57;36.50;53.60
1297;DHT22;641;48.492;9.184;2022-08-04T13:50:26;36.60;54.60
1297;DHT22;641;48.492;9.184;2022-08-04T13:52:58;36.70;56.50
1297;DHT22;641;48.492;9.184;2022-08-04T13:55:32;36.80;56.10
1297;DHT22;641;48.492;9.184;2022-08-04T13:58:03;36.90;54.60
1297;DHT22;641;48.492;9.184;2022-08-04T14:00:46;37.00;55.00
1297;DHT22;641;48.492;9.184;2022-08-04T14:03:35;37.00;54.00
1297;DHT22;641;48.492;9.184;2022-08-04T14:11:36;37.00;54.30
1297;DHT22;641;48.492;9.184;2022-08-04T14:14:19;37.00;54.00
1297;DHT22;641;48.492;9.184;2022-08-04T14:19:23;37.20;53.50
1297;DHT22;641;48.492;9.184;2022-08-04T14:21:49;37.20;54.30
1297;DHT22;641;48.492;9.184;2022-08-04T14:24:25;37.30;53.90
1297;DHT22;641;48.492;9.184;2022-08-04T14:26:52;37.40;53.70
1297;DHT22;641;48.492;9.184;2022-08-04T14:29:18;37.30;52.60
1297;DHT22;641;48.492;9.184;2022-08-04T14:31:48;37.40;53.20
1297;DHT22;641;48.492;9.184;2022-08-04T14:34:28;37.40;51.40
1297;DHT22;641;48.492;9.184;2022-08-04T14:36:55;37.40;52.70
1297;DHT22;641;48.492;9.184;2022-08-04T14:39:41;37.50;51.10
1297;DHT22;641;48.492;9.184;2022-08-04T14:42:07;37.60;51.40
1297;DHT22;641;48.492;9.184;2022-08-04T14:44:56;37.60;51.90
1297;DHT22;641;48.492;9.184;2022-08-04T14:47:43;37.60;52.10
1297;DHT22;641;48.492;9.184;2022-08-04T14:50:11;37.50;53.30
1297;DHT22;641;48.492;9.184;2022-08-04T14:52:38;37.50;52.40
1297;DHT22;641;48.492;9.184;2022-08-04T14:55:17;37.70;53.90
1297;DHT22;641;48.492;9.184;2022-08-04T14:57:43;37.70;53.70
1297;DHT22;641;48.492;9.184;2022-08-04T15:00:09;37.70;53.80
1297;DHT22;641;48.492;9.184;2022-08-04T15:02:35;37.90;54.40
1297;DHT22;641;48.492;9.184;2022-08-04T15:05:03;37.60;53.70
1297;DHT22;641;48.492;9.184;2022-08-04T15:07:30;37.70;52.80
1297;DHT22;641;48.492;9.184;2022-08-04T15:09:55;37.10;53.40
1297;DHT22;641;48.492;9.184;2022-08-04T15:12:21;37.00;52.60
1297;DHT22;641;48.492;9.184;2022-08-04T15:14:47;37.00;52.60
1297;DHT22;641;48.492;9.184;2022-08-04T15:17:13;37.20;52.50
1297;DHT22;641;48.492;9.184;2022-08-04T15:19:39;37.60;54.00
1297;DHT22;641;48.492;9.184;2022-08-04T15:22:06;38.10;53.60
1297;DHT22;641;48.492;9.184;2022-08-04T15:24:31;38.60;53.50
1297;DHT22;641;48.492;9.184;2022-08-04T15:26:58;39.00;51.60
1297;DHT22;641;48.492;9.184;2022-08-04T15:29:34;38.80;49.70
1297;DHT22;641;48.492;9.184;2022-08-04T15:32:03;39.20;52.30
1297;DHT22;641;48.492;9.184;2022-08-04T15:34:50;39.60;50.30
1297;DHT22;641;48.492;9.184;2022-08-04T15:37:53;39.90;49.90
1297;DHT22;641;48.492;9.184;2022-08-04T15:46:11;39.40;50.90
1297;DHT22;641;48.492;9.184;2022-08-04T15:48:38;39.60;50.40
1297;DHT22;641;48.492;9.184;2022-08-04T15:51:06;39.90;50.00
1297;DHT22;641;48.492;9.184;2022-08-04T15:56:01;40.50;49.80
1297;DHT22;641;48.492;9.184;2022-08-04T15:58:47;40.00;49.50
1297;DHT22;641;48.492;9.184;2022-08-04T16:01:13;40.30;50.10
1297;DHT22;641;48.492;9.184;2022-08-04T16:03:41;41.00;50.60
1297;DHT22;641;48.492;9.184;2022-08-04T16:16:33;40.90;49.50
1297;DHT22;641;48.492;9.184;2022-08-04T16:19:10;41.00;48.80
1297;DHT22;641;48.492;9.184;2022-08-04T16:21:47;41.30;48.10
1297;DHT22;641;48.492;9.184;2022-08-04T16:24:34;41.60;49.10
1297;DHT22;641;48.492;9.184;2022-08-04T16:27:05;42.00;48.60
1297;DHT22;641;48.492;9.184;2022-08-04T16:29:42;42.20;49.20
1297;DHT22;641;48.492;9.184;2022-08-04T16:32:19;42.50;48.70
1297;DHT22;641;48.492;9.184;2022-08-04T16:34:52;42.60;46.70
1297;DHT22;641;48.492;9.184;2022-08-04T16:37:20;41.70;47.00
1297;DHT22;641;48.492;9.184;2022-08-04T16:39:46;41.30;49.10
1297;DHT22;641;48.492;9.184;2022-08-04T16:42:31;41.60;48.20
1297;DHT22;641;48.492;9.184;2022-08-04T16:50:18;41.10;48.70
1297;DHT22;641;48.492;9.184;2022-08-04T16:52:47;40.70;49.70
1297;DHT22;641;48.492;9.184;2022-08-04T16:55:21;40.50;49.20
1297;DHT22;641;48.492;9.184;2022-08-04T16:57:48;40.00;48.90
1297;DHT22;641;48.492;9.184;2022-08-04T17:00:15;39.10;50.50
1297;DHT22;641;48.492;9.184;2022-08-04T17:02:42;38.90;51.30
1297;DHT22;641;48.492;9.184;2022-08-04T17:05:21;38.90;52.40
1297;DHT22;641;48.492;9.184;2022-08-04T17:07:52;38.70;52.00
1297;DHT22;641;48.492;9.184;2022-08-04T17:10:18;38.60;53.00
1297;DHT22;641;48.492;9.184;2022-08-04T17:12:44;38.40;51.90
1297;DHT22;641;48.492;9.184;2022-08-04T17:15:23;38.10;51.60
1297;DHT22;641;48.492;9.184;2022-08-04T17:17:49;37.90;52.60
1297;DHT22;641;48.492;9.184;2022-08-04T17:20:15;37.70;52.90
1297;DHT22;641;48.492;9.184;2022-08-04T17:22:41;37.30;53.90
1297;DHT22;641;48.492;9.184;2022-08-04T17:25:08;37.00;53.50
1297;DHT22;641;48.492;9.184;2022-08-04T17:27:34;36.90;54.40
1297;DHT22;641;48.492;9.184;2022-08-04T17:30:00;37.10;54.50
1297;DHT22;641;48.492;9.184;2022-08-04T17:32:26;37.10;53.80
1297;DHT22;641;48.492;9.184;2022-08-04T17:34:53;37.00;53.40
1297;DHT22;641;48.492;9.184;2022-08-04T17:37:21;36.80;53.20
1297;DHT22;641;48.492;9.184;2022-08-04T17:39:49;36.60;54.80
1297;DHT22;641;48.492;9.184;2022-08-04T17:42:27;36.90;54.90
1297;DHT22;641;48.492;9.184;2022-08-04T17:45:09;36.80;55.10
1297;DHT22;641;48.492;9.184;2022-08-04T17:47:48;36.70;56.10
1297;DHT22;641;48.492;9.184;2022-08-04T17:50:23;36.70;55.50
1297;DHT22;641;48.492;9.184;2022-08-04T17:53:03;36.30;55.40
1297;DHT22;641;48.492;9.184;2022-08-04T17:55:43;36.30;56.30
1297;DHT22;641;48.492;9.184;2022-08-04T17:58:21;36.20;56.10
1297;DHT22;641;48.492;9.184;2022-08-04T18:00:57;36.40;56.10
1297;DHT22;641;48.492;9.184;2022-08-04T18:03:24;36.30;56.00
1297;DHT22;641;48.492;9.184;2022-08-04T18:05:50;36.30;56.80
1297;DHT22;641;48.492;9.184;2022-08-04T18:08:25;36.30;57.40
1297;DHT22;641;48.492;9.184;2022-08-04T18:10:52;36.10;57.80
1297;DHT22;641;48.492;9.184;2022-08-04T18:13:18;35.90;57.90
1297;DHT22;641;48.492;9.184;2022-08-04T18:15:44;35.80;58.20
1297;DHT22;641;48.492;9.184;2022-08-04T18:18:20;35.70;59.20
1297;DHT22;641;48.492;9.184;2022-08-04T18:20:46;35.60;58.20
1297;DHT22;641;48.492;9.184;2022-08-04T18:23:13;35.40;58.00
1297;DHT22;641;48.492;9.184;2022-08-04T18:25:44;35.20;58.20
1297;DHT22;641;48.492;9.184;2022-08-04T18:28:10;35.10;58.60
1297;DHT22;641;48.492;9.184;2022-08-04T18:30:38;35.10;59.20
1297;DHT22;641;48.492;9.184;2022-08-04T18:33:03;35.10;59.10
1297;DHT22;641;48.492;9.184;2022-08-04T18:35:30;35.10;59.30
1297;DHT22;641;48.492;9.184;2022-08-04T18:37:58;35.10;59.50
1297;DHT22;641;48.492;9.184;2022-08-04T18:40:24;35.10;59.70
1297;DHT22;641;48.492;9.184;2022-08-04T18:42:50;35.10;60.00
1297;DHT22;641;48.492;9.184;2022-08-04T18:45:15;35.10;60.00
1297;DHT22;641;48.492;9.184;2022-08-04T18:47:41;35.00;60.10
1297;DHT22;641;48.492;9.184;2022-08-04T18:50:07;35.00;60.60
1297;DHT22;641;48.492;9.184;2022-08-04T18:52:33;34.90;61.00
1297;DHT22;641;48.492;9.184;2022-08-04T18:54:59;34.90;61.60
1297;DHT22;641;48.492;9.184;2022-08-04T18:57:27;34.70;62.60
1297;DHT22;641;48.492;9.184;2022-08-04T18:59:53;34.60;63.30
1297;DHT22;641;48.492;9.184;2022-08-04T19:02:21;34.60;63.60
1297;DHT22;641;48.492;9.184;2022-08-04T19:04:47;34.40;64.20
1297;DHT22;641;48.492;9.184;2022-08-04T19:07:14;34.30;64.90
1297;DHT22;641;48.492;9.184;2022-08-04T19:09:41;34.20;64.30
1297;DHT22;641;48.492;9.184;2022-08-04T19:12:07;34.00;64.80
1297;DHT22;641;48.492;9.184;2022-08-04T19:14:33;34.00;64.30
1297;DHT22;641;48.492;9.184;2022-08-04T19:16:58;33.90;64.70
1297;DHT22;641;48.492;9.184;2022-08-04T19:19:24;33.70;64.80
1297;DHT22;641;48.492;9.184;2022-08-04T19:21:49;33.60;65.20
1297;DHT22;641;48.492;9.184;2022-08-04T19:24:15;33.50;64.80
1297;DHT22;641;48.492;9.184;2022-08-04T19:26:41;33.40;65.00
1297;DHT22;641;48.492;9.184;2022-08-04T19:31:33;33.30;64.40
1297;DHT22;641;48.492;9.184;2022-08-04T19:33:59;33.20;65.00
1297;DHT22;641;48.492;9.184;2022-08-04T19:36:26;33.20;65.10
1297;DHT22;641;48.492;9.184;2022-08-04T19:38:53;33.20;65.30
1297;DHT22;641;48.492;9.184;2022-08-04T19:41:19;33.10;65.60
1297;DHT22;641;48.492;9.184;2022-08-04T19:43:44;33.00;64.80
1297;DHT22;641;48.492;9.184;2022-08-04T19:46:12;33.00;65.20
1297;DHT22;641;48.492;9.184;2022-08-04T19:48:38;32.90;65.10
1297;DHT22;641;48.492;9.184;2022-08-04T19:51:04;32.80;65.10
1297;DHT22;641;48.492;9.184;2022-08-04T19:53:29;32.80;65.10
1297;DHT22;641;48.492;9.184;2022-08-04T19:55:55;32.70;65.10
1297;DHT22;641;48.492;9.184;2022-08-04T19:58:20;32.70;65.20
1297;DHT22;641;48.492;9.184;2022-08-04T20:00:46;32.70;65.30
1297;DHT22;641;48.492;9.184;2022-08-04T20:03:12;32.60;65.50
1297;DHT22;641;48.492;9.184;2022-08-04T20:05:43;32.60;65.50
1297;DHT22;641;48.492;9.184;2022-08-04T20:08:09;32.50;65.60
1297;DHT22;641;48.492;9.184;2022-08-04T20:10:35;32.50;65.80
1297;DHT22;641;48.492;9.184;2022-08-04T20:13:01;32.40;66.00
1297;DHT22;641;48.492;9.184;2022-08-04T20:15:26;32.40;66.40
1297;DHT22;641;48.492;9.184;2022-08-04T20:17:52;32.30;67.80
1297;DHT22;641;48.492;9.184;2022-08-04T20:20:18;32.10;67.70
1297;DHT22;641;48.492;9.184;2022-08-04T20:22:43;32.00;67.80
1297;DHT22;641;48.492;9.184;2022-08-04T20:25:09;31.90;68.00
1297;DHT22;641;48.492;9.184;2022-08-04T20:27:35;31.80;68.90
1297;DHT22;641;48.492;9.184;2022-08-04T20:30:01;31.80;69.20
1297;DHT22;641;48.492;9.184;2022-08-04T20:32:27;31.60;68.70
1297;DHT22;641;48.492;9.184;2022-08-04T20:34:54;31.60;69.00
1297;DHT22;641;48.492;9.184;2022-08-04T20:37:22;31.50;69.10
1297;DHT22;641;48.492;9.184;2022-08-04T20:39:53;31.50;68.90
1297;DHT22;641;48.492;9.184;2022-08-04T20:42:19;31.50;68.90
1297;DHT22;641;48.492;9.184;2022-08-04T20:44:45;31.40;69.60
1297;DHT22;641;48.492;9.184;2022-08-04T20:47:11;31.30;70.00
1297;DHT22;641;48.492;9.184;2022-08-04T20:49:39;31.20;69.50
1297;DHT22;641;48.492;9.184;2022-08-04T20:52:04;31.00;70.60
1297;DHT22;641;48.492;9.184;2022-08-04T20:54:30;31.40;71.30